createdAt,value
2018-04-26T00:01:26.381Z,92.10
2018-04-26T00:03:53.105Z,92.90
2018-04-26T00:06:19.143Z,92.90
2018-04-26T00:08:45.984Z,92.60
2018-04-26T00:11:12.730Z,93.10
2018-04-26T00:13:39.477Z,93.00
2018-04-26T00:16:06.242Z,92.70
2018-04-26T00:18:32.246Z,92.70
2018-04-26T00:20:58.357Z,92.90
2018-04-26T00:23:25.090Z,93.60
2018-04-26T00:25:51.821Z,93.50
2018-04-26T00:28:17.838Z,93.40
2018-04-26T00:30:43.841Z,93.60
2018-04-26T00:33:09.837Z,93.60
2018-04-26T00:35:36.577Z,93.40
2018-04-26T00:38:02.569Z,93.40
2018-04-26T00:40:29.317Z,93.00
2018-04-26T00:42:56.053Z,92.90
2018-04-26T00:45:22.872Z,92.90
2018-04-26T00:47:48.813Z,92.90
2018-04-26T00:50:15.553Z,93.60
2018-04-26T00:52:42.293Z,93.30
2018-04-26T00:55:09.049Z,93.30
2018-04-26T00:57:35.938Z,93.30
2018-04-26T01:00:03.438Z,93.50
2018-04-26T01:02:30.178Z,93.60
2018-04-26T01:04:56.897Z,93.60
2018-04-26T01:07:22.909Z,93.60
2018-04-26T01:09:48.887Z,93.50
2018-04-26T01:12:14.886Z,94.50
2018-04-26T01:14:40.849Z,94.20
2018-04-26T01:17:06.853Z,94.20
2018-04-26T01:19:32.837Z,93.90
2018-04-26T01:21:59.597Z,93.70
2018-04-26T01:24:26.330Z,93.40
2018-04-26T01:26:53.095Z,93.80
2018-04-26T01:29:19.074Z,93.80
2018-04-26T01:31:45.061Z,93.60
2018-04-26T01:34:11.049Z,93.40
2018-04-26T01:36:43.909Z,94.00
2018-04-26T01:39:09.874Z,94.00
2018-04-26T01:41:35.874Z,93.60
2018-04-26T01:44:02.622Z,93.50
2018-04-26T01:46:29.357Z,93.40
2018-04-26T01:48:56.080Z,94.60
2018-04-26T01:51:22.097Z,94.60
2018-04-26T01:53:48.150Z,94.20
2018-04-26T01:56:14.901Z,94.20
2018-04-26T01:58:40.910Z,94.20
2018-04-26T02:01:07.672Z,94.60
2018-04-26T02:03:33.654Z,94.60
2018-04-26T02:05:59.642Z,94.10
2018-04-26T02:08:25.641Z,94.50
2018-04-26T02:10:51.634Z,94.20
2018-04-26T02:13:17.625Z,94.10
2018-04-26T02:15:43.627Z,94.20
2018-04-26T02:18:09.639Z,94.40
2018-04-26T02:20:35.606Z,95.30
2018-04-26T02:23:01.650Z,95.30
2018-04-26T02:25:27.622Z,95.20
2018-04-26T02:27:53.625Z,94.80
2018-04-26T02:30:20.342Z,94.40
2018-04-26T02:32:47.090Z,95.40
2018-04-26T02:35:13.860Z,95.30
2018-04-26T02:37:40.565Z,95.70
2018-04-26T02:40:07.286Z,95.50
2018-04-26T02:42:33.285Z,95.50
2018-04-26T02:44:59.287Z,95.40
2018-04-26T02:47:25.282Z,95.20
2018-04-26T02:49:51.264Z,95.50
2018-04-26T02:52:17.268Z,95.50
2018-04-26T02:54:43.265Z,95.60
2018-04-26T02:57:09.267Z,95.60
2018-04-26T02:59:36.002Z,95.00
2018-04-26T03:02:02.745Z,94.90
2018-04-26T03:04:29.465Z,95.00
2018-04-26T03:06:55.495Z,95.00
2018-04-26T03:09:21.469Z,95.40
2018-04-26T03:11:47.475Z,95.20
2018-04-26T03:14:13.470Z,95.10
2018-04-26T03:16:40.189Z,95.40
2018-04-26T03:19:06.182Z,95.20
2018-04-26T03:21:32.186Z,94.90
2018-04-26T03:23:58.232Z,95.70
2018-04-26T03:26:24.206Z,95.70
2018-04-26T03:28:50.953Z,95.70
2018-04-26T03:31:17.721Z,95.70
2018-04-26T03:33:44.430Z,95.40
2018-04-26T03:36:10.410Z,95.30
2018-04-26T03:38:36.400Z,95.60
2018-04-26T03:41:03.137Z,95.30
2018-04-26T03:43:29.120Z,95.30
2018-04-26T03:45:55.087Z,95.20
2018-04-26T03:48:21.092Z,94.90
2018-04-26T03:50:47.822Z,95.80
2018-04-26T03:53:13.809Z,95.80
2018-04-26T03:55:39.845Z,96.10
2018-04-26T03:58:05.837Z,96.00
2018-04-26T04:00:38.022Z,95.80
2018-04-26T04:03:10.213Z,95.50
2018-04-26T04:05:42.309Z,96.30
2018-04-26T04:08:08.306Z,96.20
2018-04-26T04:10:34.306Z,95.90
2018-04-26T04:13:00.309Z,95.50
2018-04-26T04:15:26.289Z,95.90
2018-04-26T04:17:53.025Z,95.70
2018-04-26T04:20:19.008Z,95.70
2018-04-26T04:22:45.006Z,95.50
2018-04-26T04:25:10.997Z,95.40
2018-04-26T04:27:37.738Z,96.20
2018-04-26T04:30:03.861Z,96.20
2018-04-26T04:32:30.605Z,96.80
2018-04-26T04:34:56.632Z,96.80
2018-04-26T04:37:23.353Z,96.00
2018-04-26T04:39:49.367Z,95.90
2018-04-26T04:42:15.535Z,96.70
2018-04-26T04:44:42.269Z,96.70
2018-04-26T04:47:08.981Z,96.50
2018-04-26T04:49:34.977Z,96.50
2018-04-26T04:52:00.957Z,96.60
2018-04-26T04:54:26.969Z,96.10
2018-04-26T04:56:53.677Z,95.90
2018-04-26T04:59:19.681Z,95.90
2018-04-26T05:01:45.681Z,95.70
2018-04-26T05:04:11.701Z,96.40
2018-04-26T05:06:37.683Z,96.40
2018-04-26T05:09:03.740Z,95.90
2018-04-26T05:11:30.445Z,95.60
2018-04-26T05:13:56.458Z,95.60
2018-04-26T05:16:22.461Z,95.80
2018-04-26T05:18:48.485Z,95.90
2018-04-26T05:21:14.469Z,95.00
2018-04-26T05:23:40.709Z,95.60
2018-04-26T05:26:06.705Z,95.70
2018-04-26T05:28:33.455Z,95.80
2018-04-26T05:31:00.181Z,95.10
2018-04-26T05:33:26.172Z,95.10
2018-04-26T05:35:52.153Z,95.60
2018-04-26T05:38:18.157Z,96.10
2018-04-26T05:40:44.882Z,95.90
2018-04-26T05:43:11.017Z,95.90
2018-04-26T05:45:37.760Z,96.20
2018-04-26T05:48:04.501Z,96.10
2018-04-26T05:50:31.249Z,96.40
2018-04-26T05:52:57.969Z,96.80
2018-04-26T05:55:23.980Z,96.80
2018-04-26T05:57:49.962Z,96.40
2018-04-26T06:00:15.985Z,96.00
2018-04-26T06:02:41.974Z,95.90
2018-04-26T06:05:08.970Z,95.80
2018-04-26T06:07:34.962Z,95.80
2018-04-26T06:10:00.962Z,96.10
2018-04-26T06:12:27.687Z,95.90
2018-04-26T06:14:53.678Z,95.80
2018-04-26T06:17:19.654Z,95.90
2018-04-26T06:19:45.638Z,95.70
2018-04-26T06:22:11.597Z,96.00
2018-04-26T06:24:38.382Z,95.70
2018-04-26T06:27:04.314Z,95.70
2018-04-26T06:29:30.321Z,95.10
2018-04-26T06:31:56.303Z,94.80
2018-04-26T06:34:23.049Z,95.10
2018-04-26T06:36:49.847Z,95.50
2018-04-26T06:39:16.575Z,94.70
2018-04-26T06:41:42.617Z,94.70
2018-04-26T06:44:08.641Z,94.80
2018-04-26T06:46:34.638Z,94.60
2018-04-26T06:49:00.630Z,94.90
2018-04-26T06:51:27.366Z,93.90
2018-04-26T06:53:54.109Z,94.20
2018-04-26T06:56:20.849Z,93.70
2018-04-26T06:58:47.585Z,93.10
2018-04-26T07:01:14.325Z,92.80
2018-04-26T07:03:41.049Z,92.80
2018-04-26T07:06:07.807Z,93.40
2018-04-26T07:08:34.545Z,93.20
2018-04-26T07:11:01.302Z,93.70
2018-04-26T07:13:27.278Z,93.70
2018-04-26T07:15:53.292Z,93.40
2018-04-26T07:18:19.289Z,93.70
2018-04-26T07:20:45.277Z,94.40
2018-04-26T07:23:12.013Z,93.50
2018-04-26T07:25:38.009Z,93.50
2018-04-26T07:28:03.997Z,92.80
2018-04-26T07:30:29.988Z,92.30
2018-04-26T07:32:55.944Z,93.20
2018-04-26T07:35:22.197Z,93.30
2018-04-26T07:37:48.174Z,92.20
2018-04-26T07:40:14.903Z,92.50
2018-04-26T07:42:40.890Z,92.60
2018-04-26T07:45:06.881Z,92.80
2018-04-26T07:47:32.869Z,92.20
2018-04-26T07:49:59.613Z,91.70
2018-04-26T07:52:26.357Z,91.40
2018-04-26T07:54:53.109Z,90.50
2018-04-26T07:57:19.251Z,90.50
2018-04-26T07:59:45.673Z,90.60
2018-04-26T08:02:11.729Z,90.00
2018-04-26T08:04:37.717Z,90.20
2018-04-26T08:07:03.727Z,87.70
2018-04-26T08:09:30.461Z,89.80
2018-04-26T08:11:57.202Z,90.10
2018-04-26T08:14:23.950Z,90.40
2018-04-26T08:16:50.755Z,88.40
2018-04-26T08:19:17.453Z,85.80
2018-04-26T08:21:43.449Z,85.80
2018-04-26T08:24:10.197Z,85.30
2018-04-26T08:26:36.929Z,83.60
2018-04-26T08:29:03.654Z,80.10
2018-04-26T08:31:29.645Z,80.10
2018-04-26T08:33:55.656Z,83.80
2018-04-26T08:36:23.238Z,81.90
2018-04-26T08:38:49.237Z,80.00
2018-04-26T08:41:15.225Z,81.90
2018-04-26T08:43:41.969Z,82.80
2018-04-26T08:46:08.680Z,81.40
2018-04-26T08:48:34.775Z,81.40
2018-04-26T08:51:00.763Z,81.50
2018-04-26T08:53:27.498Z,80.90
2018-04-26T08:55:53.496Z,81.20
2018-04-26T08:58:19.864Z,80.30
2018-04-26T09:00:45.853Z,79.70
2018-04-26T09:03:11.854Z,79.90
2018-04-26T09:05:37.852Z,78.00
2018-04-26T09:08:04.756Z,78.10
2018-04-26T09:10:30.816Z,78.40
2018-04-26T09:12:57.642Z,78.60
2018-04-26T09:15:23.649Z,76.70
2018-04-26T09:17:51.276Z,75.10
2018-04-26T09:20:18.977Z,75.10
2018-04-26T09:22:45.708Z,75.40
2018-04-26T09:25:12.863Z,77.10
2018-04-26T09:27:38.897Z,77.10
2018-04-26T09:30:05.511Z,76.30
2018-04-26T09:32:32.449Z,81.20
2018-04-26T09:34:58.385Z,81.10
2018-04-26T09:37:25.231Z,83.20
2018-04-26T09:39:51.969Z,85.30
2018-04-26T09:42:18.693Z,82.20
2018-04-26T09:44:45.585Z,82.20
2018-04-26T09:47:12.617Z,82.90
2018-04-26T09:49:39.604Z,85.30
2018-04-26T09:52:06.756Z,83.30
2018-04-26T09:54:33.720Z,78.90
2018-04-26T09:57:03.161Z,78.00
2018-04-26T09:59:31.641Z,76.80
2018-04-26T10:02:02.330Z,77.00
2018-04-26T10:04:30.273Z,76.70
2018-04-26T10:06:59.833Z,77.20
2018-04-26T10:09:27.704Z,74.10
2018-04-26T10:11:59.202Z,73.40
2018-04-26T10:14:27.377Z,75.60
2018-04-26T10:16:56.125Z,73.40
2018-04-26T10:19:24.288Z,74.10
2018-04-26T10:21:51.973Z,70.80
2018-04-26T10:24:21.417Z,69.30
2018-04-26T10:26:49.698Z,72.00
2018-04-26T10:29:18.396Z,71.70
2018-04-26T10:31:49.101Z,70.60
2018-04-26T10:34:23.017Z,70.60
2018-04-26T10:36:56.337Z,71.00
2018-04-26T10:39:30.017Z,70.40
2018-04-26T10:42:01.101Z,69.40
2018-04-26T10:44:31.218Z,68.00
2018-04-26T10:47:02.877Z,68.00
2018-04-26T10:49:34.003Z,68.30
2018-04-26T10:52:18.770Z,67.90
2018-04-26T10:55:06.886Z,65.00
2018-04-26T10:57:49.041Z,65.60
2018-04-26T11:00:34.910Z,64.50
2018-04-26T11:03:16.273Z,63.50
2018-04-26T11:06:04.286Z,63.40
2018-04-26T11:11:27.502Z,65.50
2018-04-26T14:03:50.179Z,44.00
2018-04-26T14:06:16.951Z,45.40
2018-04-26T14:08:43.071Z,45.30
2018-04-26T14:11:09.821Z,47.70
2018-04-26T14:13:35.817Z,47.60
2018-04-26T14:16:03.277Z,48.70
2018-04-26T14:18:30.014Z,50.40
2018-04-26T14:20:55.986Z,49.60
2018-04-26T14:23:22.037Z,48.70
2018-04-26T14:25:47.992Z,46.60
2018-04-26T14:28:14.740Z,45.20
2018-04-26T14:30:40.702Z,45.20
2018-04-26T14:33:06.717Z,44.20
2018-04-26T14:35:32.730Z,43.40
2018-04-26T14:37:58.709Z,44.50
2018-04-26T14:40:24.704Z,41.70
2018-04-26T14:42:50.694Z,41.30
2018-04-26T14:45:16.701Z,42.90
2018-04-26T14:47:43.547Z,42.50
2018-04-26T14:50:10.290Z,43.10
2018-04-26T14:52:36.345Z,43.20
2018-04-26T14:55:02.383Z,43.40
2018-04-26T14:57:28.378Z,40.90
2018-04-26T14:59:54.383Z,41.10
2018-04-26T15:02:21.105Z,43.30
2018-04-26T15:04:47.101Z,43.40
2018-04-26T15:07:13.085Z,45.00
2018-04-26T15:09:39.109Z,45.00
2018-04-26T15:12:05.085Z,44.90
2018-04-26T15:14:31.086Z,46.10
2018-04-26T15:16:57.072Z,48.40
2018-04-26T15:19:23.065Z,50.20
2018-04-26T15:21:49.081Z,50.00
2018-04-26T15:24:15.051Z,50.40
2018-04-26T15:26:41.058Z,50.30
2018-04-26T15:29:07.046Z,50.10
2018-04-26T15:31:33.039Z,50.10
2018-04-26T15:33:59.021Z,51.90
2018-04-26T15:36:25.762Z,52.10
2018-04-26T15:38:52.571Z,51.80
2018-04-26T15:41:19.215Z,53.70
2018-04-26T15:43:45.181Z,53.80
2018-04-26T15:46:11.905Z,54.20
2018-04-26T15:48:38.629Z,54.50
2018-04-26T15:51:04.645Z,54.60
2018-04-26T15:53:36.718Z,55.30
2018-04-26T15:56:09.597Z,55.00
2018-04-26T15:58:41.722Z,55.00
2018-04-26T16:01:14.039Z,52.60
2018-04-26T16:03:46.942Z,48.80
2018-04-26T16:06:25.078Z,48.80
2018-04-26T16:08:57.217Z,50.30
2018-04-26T16:11:29.328Z,52.20
2018-04-26T16:14:01.373Z,50.70
2018-04-26T16:16:39.835Z,51.10
2018-04-26T16:19:18.190Z,52.10
2018-04-26T16:22:07.032Z,49.80
2018-04-26T16:24:55.100Z,49.70
2018-04-26T16:27:33.393Z,50.90
2018-04-26T16:30:06.190Z,52.30
2018-04-26T16:32:38.230Z,52.20
2018-04-26T16:35:17.344Z,54.30
2018-04-26T16:37:56.416Z,53.50
2018-04-26T16:40:22.481Z,53.40
2018-04-26T16:42:48.505Z,54.20
2018-04-26T16:45:14.485Z,54.10
2018-04-26T16:47:40.590Z,54.50
2018-04-26T16:50:06.653Z,53.40
2018-04-26T16:52:32.643Z,52.10
2018-04-26T16:54:58.673Z,53.90
2018-04-26T16:57:24.727Z,53.70
2018-04-26T16:59:50.740Z,53.90
2018-04-26T17:02:16.777Z,54.90
2018-04-26T17:04:42.890Z,52.60
2018-04-26T17:07:08.853Z,53.00
2018-04-26T17:09:35.570Z,56.30
2018-04-26T17:12:01.553Z,56.30
2018-04-26T17:14:27.620Z,56.40
2018-04-26T17:16:53.629Z,57.90
2018-04-26T17:19:19.670Z,57.00
2018-04-26T17:21:45.641Z,56.90
2018-04-26T17:24:12.382Z,58.20
2018-04-26T17:26:39.105Z,59.00
2018-04-26T17:29:05.101Z,59.00
2018-04-26T17:31:31.097Z,58.90
2018-04-26T17:33:57.125Z,59.70
2018-04-26T17:36:23.212Z,59.60
2018-04-26T17:38:49.950Z,60.20
2018-04-26T17:41:16.697Z,61.00
2018-04-26T17:43:42.714Z,61.00
2018-04-26T17:46:09.457Z,60.70
2018-04-26T17:48:36.181Z,61.00
2018-04-26T17:51:02.177Z,61.10
2018-04-26T17:53:28.277Z,61.40
2018-04-26T17:55:54.372Z,61.60
2018-04-26T17:58:21.193Z,62.10
2018-04-26T18:00:47.842Z,63.50
2018-04-26T18:03:13.864Z,62.80
2018-04-26T18:05:39.896Z,62.30
2018-04-26T18:08:06.617Z,63.60
2018-04-26T18:10:32.617Z,63.00
2018-04-26T18:12:58.590Z,62.50
2018-04-26T18:15:24.593Z,62.40
2018-04-26T18:17:50.601Z,61.40
2018-04-26T18:20:16.665Z,61.40
2018-04-26T18:22:42.612Z,63.30
2018-04-26T18:25:08.658Z,64.30
2018-04-26T18:27:35.328Z,67.20
2018-04-26T18:30:01.329Z,67.20
2018-04-26T18:32:27.399Z,67.70
2018-04-26T18:34:53.413Z,67.10
2018-04-26T18:37:20.181Z,68.20
2018-04-26T18:39:46.330Z,68.30
2018-04-26T18:42:12.520Z,68.60
2018-04-26T18:44:39.263Z,70.10
2018-04-26T18:47:05.265Z,70.20
2018-04-26T18:49:32.036Z,68.70
2018-04-26T18:51:58.828Z,70.80
2018-04-26T18:54:24.817Z,71.20
2018-04-26T18:56:50.974Z,71.00
2018-04-26T18:59:16.962Z,71.70
2018-04-26T19:01:43.029Z,72.10
2018-04-26T19:04:09.818Z,74.80
2018-04-26T19:06:35.831Z,75.70
2018-04-26T19:09:02.557Z,74.40
2018-04-26T19:11:28.784Z,74.30
2018-04-26T19:13:55.665Z,74.30
2018-04-26T19:16:21.671Z,74.30
2018-04-26T19:18:48.105Z,75.10
2018-04-26T19:21:14.345Z,75.90
2018-04-26T19:23:40.373Z,77.40
2018-04-26T19:26:06.365Z,77.70
2018-04-26T19:28:33.104Z,76.00
2018-04-26T19:30:59.928Z,75.00
2018-04-26T19:33:25.900Z,75.00
2018-04-26T19:35:51.877Z,76.70
2018-04-26T19:38:17.928Z,78.00
2018-04-26T19:40:43.952Z,75.90
2018-04-26T19:43:09.964Z,76.70
2018-04-26T19:45:36.663Z,79.40
2018-04-26T19:48:02.625Z,79.40
2018-04-26T19:50:29.419Z,79.10
2018-04-26T19:52:55.520Z,79.10
2018-04-26T19:55:21.548Z,80.20
2018-04-26T19:57:47.619Z,79.40
2018-04-26T20:00:13.549Z,79.40
2018-04-26T20:02:39.522Z,77.50
2018-04-26T20:05:05.495Z,78.00
2018-04-26T20:07:31.443Z,77.60
2018-04-26T20:09:58.152Z,79.40
2018-04-26T20:12:24.227Z,79.40
2018-04-26T20:14:50.225Z,79.00
2018-04-26T20:17:16.938Z,79.50
2018-04-26T20:19:42.925Z,79.40
2018-04-26T20:22:08.892Z,78.60
2018-04-26T20:24:35.645Z,79.30
2018-04-26T20:27:02.394Z,80.50
2018-04-26T20:29:28.397Z,80.50
2018-04-26T20:31:54.521Z,80.40
2018-04-26T20:34:20.522Z,80.50
2018-04-26T20:36:46.517Z,80.00
2018-04-26T20:39:12.488Z,80.00
2018-04-26T20:41:44.706Z,80.70
2018-04-26T20:44:10.701Z,81.00
2018-04-26T20:46:37.442Z,82.40
2018-04-26T20:49:04.219Z,81.30
2018-04-26T20:51:30.532Z,81.30
2018-04-26T20:53:56.533Z,83.00
2018-04-26T20:56:23.316Z,82.70
2018-04-26T20:58:49.292Z,82.60
2018-04-26T21:01:16.021Z,83.20
2018-04-26T21:03:42.105Z,83.20
2018-04-26T21:06:08.097Z,82.90
2018-04-26T21:08:34.825Z,81.90
2018-04-26T21:11:01.553Z,82.90
2018-04-26T21:13:27.558Z,83.00
2018-04-26T21:15:53.596Z,83.20
2018-04-26T21:18:19.577Z,83.40
2018-04-26T21:20:45.565Z,83.20
2018-04-26T21:23:11.545Z,84.60
2018-04-26T21:25:37.552Z,84.70
2018-04-26T21:28:03.561Z,87.00
2018-04-26T21:30:29.553Z,88.30
2018-04-26T21:32:55.556Z,88.40
2018-04-26T21:35:21.573Z,86.60
2018-04-26T21:37:47.551Z,87.10
2018-04-26T21:40:13.712Z,88.60
2018-04-26T21:42:39.696Z,89.30
2018-04-26T21:45:05.678Z,89.30
2018-04-26T21:47:31.694Z,89.20
2018-04-26T21:50:04.098Z,87.50
2018-04-26T21:52:36.574Z,87.30
2018-04-26T21:55:08.661Z,88.50
2018-04-26T21:57:40.877Z,88.20
2018-04-26T22:00:12.977Z,86.70
2018-04-26T22:02:38.927Z,86.40
2018-04-26T22:05:11.857Z,86.20
2018-04-26T22:07:38.620Z,89.00
2018-04-26T22:10:05.336Z,89.30
2018-04-26T22:12:31.328Z,89.30
2018-04-26T22:14:57.335Z,88.50
2018-04-26T22:17:23.326Z,88.50
2018-04-26T22:19:50.053Z,88.50
2018-04-26T22:22:16.789Z,89.30
2018-04-26T22:24:42.797Z,88.60
2018-04-26T22:27:08.866Z,87.70
2018-04-26T22:29:35.577Z,87.20
2018-04-26T22:32:01.574Z,87.20
2018-04-26T22:34:27.537Z,87.10
2018-04-26T22:36:54.398Z,86.50
2018-04-26T22:39:20.433Z,86.50
2018-04-26T22:41:46.465Z,85.90
2018-04-26T22:44:12.438Z,86.30
2018-04-26T22:46:38.477Z,86.20
2018-04-26T22:49:04.482Z,85.60
2018-04-26T22:51:30.457Z,85.90
2018-04-26T22:53:56.449Z,85.60
2018-04-26T22:56:23.185Z,85.90
2018-04-26T22:58:49.929Z,86.50
2018-04-26T23:01:16.649Z,85.50
2018-04-26T23:03:42.645Z,85.50
2018-04-26T23:06:08.650Z,84.80
2018-04-26T23:08:34.677Z,84.40
2018-04-26T23:11:00.646Z,86.00
2018-04-26T23:13:26.649Z,85.70
2018-04-26T23:15:52.630Z,86.00
2018-04-26T23:18:18.624Z,85.20
2018-04-26T23:20:45.350Z,86.10
2018-04-26T23:23:11.334Z,86.10
2018-04-26T23:25:37.313Z,88.40
2018-04-26T23:28:04.053Z,89.50
2018-04-26T23:30:30.061Z,89.50
2018-04-26T23:32:56.042Z,88.10
2018-04-26T23:35:22.045Z,87.20
2018-04-26T23:37:48.054Z,87.00
2018-04-26T23:40:14.837Z,87.40
2018-04-26T23:42:40.827Z,87.40
2018-04-26T23:45:07.555Z,87.40
2018-04-26T23:47:34.298Z,87.20
2018-04-26T23:50:01.049Z,87.30
2018-04-26T23:52:27.041Z,87.30
2018-04-26T23:54:53.046Z,86.30
2018-04-26T23:57:19.042Z,88.30
2018-04-26T23:59:45.033Z,88.50
